createdAt,value
2023-03-16T00:01:34.636Z,6.70
2023-03-16T00:04:38.348Z,6.70
2023-03-16T00:07:43.144Z,6.80
2023-03-16T00:10:46.964Z,6.70
2023-03-16T00:13:49.836Z,6.70
2023-03-16T00:16:53.364Z,6.70
2023-03-16T00:19:57.838Z,6.70
2023-03-16T00:23:02.721Z,6.70
2023-03-16T00:26:07.829Z,6.70
2023-03-16T00:29:11.947Z,6.70
2023-03-16T00:32:17.482Z,6.60
2023-03-16T00:35:21.606Z,6.60
2023-03-16T00:38:25.803Z,6.50
2023-03-16T00:41:28.661Z,6.40
2023-03-16T00:44:32.109Z,6.40
2023-03-16T00:47:35.982Z,6.30
2023-03-16T00:50:38.986Z,6.20
2023-03-16T00:53:44.702Z,6.20
2023-03-16T00:56:47.585Z,6.30
2023-03-16T00:59:50.911Z,6.30
2023-03-16T01:02:53.786Z,6.20
2023-03-16T01:05:59.819Z,6.20
2023-03-16T01:09:05.461Z,6.20
2023-03-16T01:12:10.728Z,6.20
2023-03-16T01:15:13.730Z,6.10
2023-03-16T01:18:16.588Z,6.10
2023-03-16T01:21:21.687Z,6.00
2023-03-16T01:24:25.887Z,6.00
2023-03-16T01:27:28.731Z,6.00
2023-03-16T01:30:31.636Z,5.90
2023-03-16T01:33:35.075Z,5.90
2023-03-16T01:36:37.930Z,5.90
2023-03-16T01:39:42.116Z,5.90
2023-03-16T01:42:49.006Z,5.90
2023-03-16T01:46:18.246Z,5.90
2023-03-16T01:49:25.188Z,5.90
2023-03-16T01:52:33.297Z,5.90
2023-03-16T01:55:37.616Z,5.80
2023-03-16T01:58:43.151Z,5.80
2023-03-16T02:01:47.765Z,5.70
2023-03-16T02:04:54.451Z,5.70
2023-03-16T02:07:58.940Z,5.60
2023-03-16T02:11:04.874Z,5.60
2023-03-16T02:14:10.989Z,5.60
2023-03-16T02:17:15.527Z,5.60
2023-03-16T02:20:30.688Z,5.50
2023-03-16T02:23:33.628Z,5.50
2023-03-16T02:26:44.810Z,5.50
2023-03-16T02:30:03.315Z,5.40
2023-03-16T02:33:06.441Z,5.40
2023-03-16T02:36:10.211Z,5.40
2023-03-16T02:39:13.061Z,5.40
2023-03-16T02:42:18.898Z,5.30
2023-03-16T02:45:25.672Z,5.30
2023-03-16T02:48:32.738Z,5.30
2023-03-16T02:51:35.837Z,5.30
2023-03-16T02:54:38.845Z,5.20
2023-03-16T02:57:41.708Z,5.30
2023-03-16T03:00:46.321Z,5.20
2023-03-16T03:03:49.189Z,5.20
2023-03-16T03:06:52.376Z,5.20
2023-03-16T03:09:55.206Z,5.20
2023-03-16T03:12:58.426Z,5.20
2023-03-16T03:16:02.751Z,5.10
2023-03-16T03:19:05.697Z,5.20
2023-03-16T03:22:09.044Z,5.10
2023-03-16T03:25:12.278Z,5.10
2023-03-16T03:28:15.506Z,5.10
2023-03-16T03:31:22.004Z,5.10
2023-03-16T03:34:25.038Z,5.00
2023-03-16T03:37:28.823Z,5.00
2023-03-16T03:40:31.681Z,5.00
2023-03-16T03:43:34.943Z,5.00
2023-03-16T03:46:39.564Z,5.00
2023-03-16T03:49:42.496Z,4.90
2023-03-16T03:52:45.382Z,5.00
2023-03-16T03:55:49.887Z,4.90
2023-03-16T03:58:52.814Z,4.90
2023-03-16T04:01:57.354Z,4.90
2023-03-16T04:05:00.310Z,4.90
2023-03-16T04:08:03.181Z,4.90
2023-03-16T04:11:06.313Z,4.90
2023-03-16T04:14:09.496Z,4.90
2023-03-16T04:17:14.030Z,4.90
2023-03-16T04:20:19.481Z,4.90
2023-03-16T04:23:24.952Z,4.80
2023-03-16T04:26:27.879Z,4.80
2023-03-16T04:29:32.020Z,4.80
2023-03-16T04:32:36.304Z,4.70
2023-03-16T04:35:39.270Z,4.70
2023-03-16T04:38:42.270Z,4.70
2023-03-16T04:41:45.155Z,4.70
2023-03-16T04:44:48.114Z,4.70
2023-03-16T04:47:52.336Z,4.70
2023-03-16T04:50:55.238Z,4.70
2023-03-16T04:53:58.544Z,4.70
2023-03-16T04:57:03.591Z,4.70
2023-03-16T05:00:11.690Z,4.60
2023-03-16T05:03:16.224Z,4.60
2023-03-16T05:06:19.092Z,4.60
2023-03-16T05:09:22.019Z,4.60
2023-03-16T05:12:24.982Z,4.60
2023-03-16T05:15:28.292Z,4.60
2023-03-16T05:18:33.169Z,4.60
2023-03-16T05:21:37.720Z,4.60
2023-03-16T05:24:40.621Z,4.60
2023-03-16T05:27:43.796Z,4.60
2023-03-16T05:30:46.857Z,4.50
2023-03-16T05:33:51.087Z,4.50
2023-03-16T05:36:54.142Z,4.60
2023-03-16T05:39:57.676Z,4.60
2023-03-16T05:43:00.970Z,4.60
2023-03-16T05:46:03.946Z,4.60
2023-03-16T05:49:08.350Z,4.60
2023-03-16T05:52:11.298Z,4.60
2023-03-16T05:55:15.650Z,4.60
2023-03-16T05:58:18.493Z,4.60
2023-03-16T06:01:22.035Z,4.60
2023-03-16T06:04:26.976Z,4.60
2023-03-16T06:07:29.864Z,4.60
2023-03-16T06:10:32.752Z,4.70
2023-03-16T06:13:35.971Z,4.70
2023-03-16T06:16:38.875Z,4.80
2023-03-16T06:19:43.171Z,4.80
2023-03-16T06:22:46.356Z,4.90
2023-03-16T06:25:49.756Z,5.00
2023-03-16T06:28:52.593Z,5.10
2023-03-16T06:31:55.519Z,5.10
2023-03-16T06:35:02.222Z,5.10
2023-03-16T06:38:05.098Z,5.20
2023-03-16T06:41:07.994Z,5.20
2023-03-16T06:44:11.534Z,5.20
2023-03-16T06:47:14.862Z,5.20
2023-03-16T06:50:19.391Z,5.30
2023-03-16T06:53:22.719Z,5.30
2023-03-16T06:56:27.865Z,5.40
2023-03-16T06:59:31.366Z,5.40
2023-03-16T07:02:35.768Z,5.40
2023-03-16T07:05:40.140Z,5.40
2023-03-16T07:08:43.425Z,5.50
2023-03-16T07:11:46.311Z,5.50
2023-03-16T07:14:52.397Z,5.50
2023-03-16T07:17:56.614Z,5.50
2023-03-16T07:21:00.826Z,5.60
2023-03-16T07:24:03.674Z,5.60
2023-03-16T07:27:06.681Z,5.70
2023-03-16T07:30:12.128Z,5.80
2023-03-16T07:33:15.448Z,5.80
2023-03-16T07:36:20.607Z,5.80
2023-03-16T07:39:23.897Z,5.90
2023-03-16T07:42:26.779Z,5.80
2023-03-16T07:45:29.931Z,5.90
2023-03-16T07:48:33.246Z,5.90
2023-03-16T07:51:37.492Z,6.00
2023-03-16T07:54:41.136Z,6.00
2023-03-16T07:57:48.071Z,6.10
2023-03-16T08:00:51.168Z,6.20
2023-03-16T08:03:54.564Z,6.20
2023-03-16T08:07:00.358Z,6.20
2023-03-16T08:10:03.364Z,6.20
2023-03-16T08:13:06.359Z,6.10
2023-03-16T08:16:10.640Z,6.20
2023-03-16T08:19:13.714Z,6.20
2023-03-16T08:22:17.984Z,6.30
2023-03-16T08:25:21.025Z,6.30
2023-03-16T08:28:25.954Z,6.40
2023-03-16T08:31:30.308Z,6.50
2023-03-16T08:34:33.340Z,6.60
2023-03-16T08:37:37.623Z,6.60
2023-03-16T08:40:46.907Z,6.70
2023-03-16T08:43:52.274Z,6.80
2023-03-16T08:46:55.278Z,6.80
2023-03-16T08:49:58.759Z,6.90
2023-03-16T08:53:02.973Z,7.00
2023-03-16T08:56:07.748Z,7.00
2023-03-16T08:59:27.051Z,7.10
2023-03-16T09:02:32.640Z,7.20
2023-03-16T09:05:35.802Z,7.30
2023-03-16T09:08:40.676Z,7.30
2023-03-16T09:11:43.848Z,7.40
2023-03-16T09:14:46.728Z,7.40
2023-03-16T09:17:50.516Z,7.60
2023-03-16T09:20:53.492Z,7.80
2023-03-16T09:23:57.722Z,7.80
2023-03-16T09:27:00.589Z,7.90
2023-03-16T09:30:04.964Z,8.10
2023-03-16T09:33:08.015Z,8.10
2023-03-16T09:36:12.332Z,8.20
2023-03-16T09:39:16.538Z,8.30
2023-03-16T09:42:26.341Z,8.40
2023-03-16T09:45:36.956Z,8.50
2023-03-16T09:48:42.309Z,8.60
2023-03-16T09:51:49.726Z,8.80
2023-03-16T09:54:59.788Z,8.90
2023-03-16T09:58:06.858Z,9.00
2023-03-16T10:01:18.973Z,9.10
2023-03-16T10:04:42.594Z,9.30
2023-03-16T10:07:55.068Z,9.50
2023-03-16T10:11:25.618Z,9.70
2023-03-16T10:14:34.689Z,9.90
2023-03-16T10:17:43.238Z,10.00
2023-03-16T10:20:48.027Z,10.20
2023-03-16T10:23:52.122Z,10.20
2023-03-16T10:27:00.519Z,10.30
2023-03-16T10:30:07.259Z,10.30
2023-03-16T10:33:19.704Z,10.30
2023-03-16T10:36:28.601Z,10.50
2023-03-16T10:39:37.278Z,10.80
2023-03-16T10:42:41.567Z,10.90
2023-03-16T10:45:44.753Z,11.00
2023-03-16T10:48:54.678Z,11.20
2023-03-16T10:52:01.243Z,11.40
2023-03-16T10:55:11.872Z,11.60
2023-03-16T10:58:26.207Z,11.80
2023-03-16T11:01:30.607Z,12.00
2023-03-16T11:04:34.666Z,12.10
2023-03-16T11:07:39.203Z,12.20
2023-03-16T11:10:55.747Z,12.50
2023-03-16T11:14:02.631Z,12.60
2023-03-16T11:17:12.240Z,12.80
2023-03-16T11:20:18.293Z,12.90
2023-03-16T11:23:29.365Z,13.00
2023-03-16T11:26:36.029Z,13.10
2023-03-16T11:29:51.229Z,13.20
2023-03-16T11:32:54.813Z,13.30
2023-03-16T11:36:11.516Z,13.50
2023-03-16T11:39:32.806Z,13.70
2023-03-16T11:42:40.056Z,13.80
2023-03-16T11:45:52.853Z,14.10
2023-03-16T11:49:10.139Z,14.20
2023-03-16T11:52:19.618Z,14.30
2023-03-16T11:55:32.402Z,14.50
2023-03-16T11:58:50.413Z,14.70
2023-03-16T12:02:07.284Z,14.90
2023-03-16T12:05:37.251Z,15.00
2023-03-16T12:08:57.495Z,14.90
2023-03-16T12:12:05.085Z,15.10
2023-03-16T12:15:21.406Z,15.30
2023-03-16T12:18:31.091Z,15.40
2023-03-16T12:21:38.654Z,15.60
2023-03-16T12:24:46.056Z,15.60
2023-03-16T12:27:53.890Z,15.60
2023-03-16T12:31:09.466Z,15.70
2023-03-16T12:34:26.736Z,15.90
2023-03-16T12:37:37.283Z,16.10
2023-03-16T12:40:47.570Z,16.30
2023-03-16T12:44:03.895Z,16.40
2023-03-16T12:47:16.170Z,16.60
2023-03-16T12:50:22.374Z,16.70
2023-03-16T12:53:30.440Z,16.70
2023-03-16T12:56:36.149Z,16.80
2023-03-16T12:59:42.830Z,17.00
2023-03-16T13:02:51.666Z,17.20
2023-03-16T13:05:59.508Z,17.30
2023-03-16T13:09:04.823Z,17.50
2023-03-16T13:12:07.915Z,17.60
2023-03-16T13:15:29.574Z,17.70
2023-03-16T13:18:38.632Z,17.90
2023-03-16T13:21:43.747Z,17.90
2023-03-16T13:24:53.053Z,18.10
2023-03-16T13:27:58.255Z,18.20
2023-03-16T13:31:02.717Z,18.30
2023-03-16T13:34:08.609Z,18.30
2023-03-16T13:37:15.466Z,18.30
2023-03-16T13:40:21.800Z,18.40
2023-03-16T13:43:28.732Z,18.60
2023-03-16T13:46:31.945Z,18.80
2023-03-16T13:49:35.189Z,18.80
2023-03-16T13:52:39.541Z,19.00
2023-03-16T13:55:45.340Z,19.10
2023-03-16T13:58:51.220Z,19.30
2023-03-16T14:01:59.706Z,19.30
2023-03-16T14:05:11.652Z,19.40
2023-03-16T14:08:21.777Z,19.50
2023-03-16T14:11:24.708Z,19.60
2023-03-16T14:14:30.793Z,19.50
2023-03-16T14:17:33.942Z,19.60
2023-03-16T14:20:41.295Z,19.70
2023-03-16T14:23:47.780Z,19.70
2023-03-16T14:26:50.931Z,19.70
2023-03-16T14:29:58.991Z,19.80
2023-03-16T14:33:04.411Z,19.90
2023-03-16T14:36:14.646Z,19.80
2023-03-16T14:39:22.802Z,19.80
2023-03-16T14:42:30.072Z,19.80
2023-03-16T14:45:35.827Z,19.90
2023-03-16T14:48:39.306Z,19.80
2023-03-16T14:51:42.298Z,19.90
2023-03-16T14:54:46.852Z,20.00
2023-03-16T14:57:51.301Z,19.90
2023-03-16T15:00:55.008Z,19.90
2023-03-16T15:03:58.012Z,19.80
2023-03-16T15:07:03.890Z,19.90
2023-03-16T15:10:17.912Z,19.80
2023-03-16T15:13:34.884Z,19.80
2023-03-16T15:16:37.940Z,19.50
2023-03-16T15:19:41.141Z,19.50
2023-03-16T15:22:46.074Z,19.40
2023-03-16T15:25:52.646Z,19.30
2023-03-16T15:28:56.000Z,19.20
2023-03-16T15:31:58.838Z,19.20
2023-03-16T15:35:01.687Z,19.10
2023-03-16T15:38:08.684Z,19.10
2023-03-16T15:41:13.234Z,19.00
2023-03-16T15:44:16.314Z,19.00
2023-03-16T15:47:19.315Z,18.90
2023-03-16T15:50:24.696Z,18.80
2023-03-16T15:53:33.620Z,18.70
2023-03-16T15:56:53.341Z,18.60
2023-03-16T15:59:57.348Z,18.50
2023-03-16T16:03:01.308Z,18.50
2023-03-16T16:06:04.387Z,18.30
2023-03-16T16:09:07.361Z,18.10
2023-03-16T16:12:14.373Z,17.90
2023-03-16T16:15:21.693Z,17.80
2023-03-16T16:18:28.500Z,17.70
2023-03-16T16:21:32.628Z,17.50
2023-03-16T16:24:35.536Z,17.40
2023-03-16T16:27:39.896Z,17.30
2023-03-16T16:30:43.129Z,16.90
2023-03-16T16:33:45.967Z,16.80
2023-03-16T16:36:49.404Z,16.70
2023-03-16T16:39:52.609Z,16.60
2023-03-16T16:42:57.021Z,16.50
2023-03-16T16:46:00.777Z,16.50
2023-03-16T16:49:08.894Z,16.40
2023-03-16T16:52:15.211Z,16.20
2023-03-16T16:55:18.889Z,16.00
2023-03-16T16:58:24.925Z,16.00
2023-03-16T17:01:29.776Z,15.90
2023-03-16T17:04:32.799Z,15.80
2023-03-16T17:07:36.180Z,15.70
2023-03-16T17:10:39.751Z,15.50
2023-03-16T17:13:46.202Z,15.40
2023-03-16T17:16:50.549Z,15.30
2023-03-16T17:19:53.496Z,15.20
2023-03-16T17:22:57.840Z,15.10
2023-03-16T17:26:04.446Z,15.00
2023-03-16T17:29:17.435Z,14.80
2023-03-16T17:32:23.212Z,14.70
2023-03-16T17:35:26.285Z,14.60
2023-03-16T17:38:29.469Z,14.50
2023-03-16T17:41:33.136Z,14.50
2023-03-16T17:44:41.891Z,14.40
2023-03-16T17:47:44.788Z,14.20
2023-03-16T17:50:49.584Z,14.20
2023-03-16T17:53:53.888Z,14.10
2023-03-16T17:56:57.059Z,14.10
2023-03-16T18:00:02.642Z,14.00
2023-03-16T18:03:11.759Z,13.90
2023-03-16T18:06:20.278Z,13.80
2023-03-16T18:09:23.232Z,13.70
2023-03-16T18:12:26.362Z,13.60
2023-03-16T18:15:33.868Z,13.50
2023-03-16T18:18:40.030Z,13.50
2023-03-16T18:21:43.794Z,13.50
2023-03-16T18:24:48.446Z,13.50
2023-03-16T18:27:51.317Z,13.40
2023-03-16T18:30:57.404Z,13.30
2023-03-16T18:34:02.524Z,13.30
2023-03-16T18:37:06.246Z,13.30
2023-03-16T18:40:13.320Z,13.10
2023-03-16T18:43:18.158Z,13.00
2023-03-16T18:46:27.919Z,13.00
2023-03-16T18:49:34.634Z,12.80
2023-03-16T18:52:39.212Z,12.80
2023-03-16T18:55:44.954Z,12.90
2023-03-16T18:58:48.251Z,12.90
2023-03-16T19:01:53.984Z,12.80
2023-03-16T19:04:58.488Z,12.70
2023-03-16T19:08:01.793Z,12.60
2023-03-16T19:11:06.171Z,12.60
2023-03-16T19:14:16.389Z,12.60
2023-03-16T19:17:20.618Z,12.50
2023-03-16T19:20:25.912Z,12.50
2023-03-16T19:23:32.932Z,12.50
2023-03-16T19:26:37.180Z,12.40
2023-03-16T19:29:40.888Z,12.30
2023-03-16T19:32:45.215Z,12.20
2023-03-16T19:35:51.893Z,12.20
2023-03-16T19:38:55.619Z,12.30
2023-03-16T19:41:59.872Z,12.30
2023-03-16T19:45:03.215Z,12.20
2023-03-16T19:48:14.070Z,12.10
2023-03-16T19:51:18.600Z,12.10
2023-03-16T19:54:23.741Z,12.10
2023-03-16T19:57:26.874Z,11.90
2023-03-16T20:00:31.029Z,11.90
2023-03-16T20:03:37.430Z,12.00
2023-03-16T20:06:40.552Z,11.90
2023-03-16T20:09:43.509Z,11.90
2023-03-16T20:12:47.216Z,11.90
2023-03-16T20:15:50.080Z,11.70
2023-03-16T20:18:56.697Z,11.70
2023-03-16T20:21:59.746Z,11.70
2023-03-16T20:25:05.233Z,11.60
2023-03-16T20:28:14.863Z,11.70
2023-03-16T20:31:20.781Z,11.60
2023-03-16T20:34:27.449Z,11.60
2023-03-16T20:37:32.239Z,11.60
2023-03-16T20:40:35.116Z,11.60
2023-03-16T20:43:38.708Z,11.50
2023-03-16T20:46:41.811Z,11.50
2023-03-16T20:49:46.229Z,11.50
2023-03-16T20:52:49.233Z,11.40
2023-03-16T20:55:54.502Z,11.40
2023-03-16T20:58:58.999Z,11.40
2023-03-16T21:02:03.178Z,11.30
2023-03-16T21:05:09.675Z,11.30
2023-03-16T21:08:12.735Z,11.20
2023-03-16T21:11:22.522Z,11.20
2023-03-16T21:14:26.345Z,11.20
2023-03-16T21:17:31.894Z,11.10
2023-03-16T21:20:37.052Z,11.10
2023-03-16T21:23:39.905Z,11.00
2023-03-16T21:26:44.832Z,10.90
2023-03-16T21:29:48.241Z,10.90
2023-03-16T21:32:52.201Z,10.90
2023-03-16T21:35:56.610Z,10.80
2023-03-16T21:38:59.462Z,10.80
2023-03-16T21:42:02.313Z,10.70
2023-03-16T21:45:06.038Z,10.60
2023-03-16T21:48:21.413Z,10.60
2023-03-16T21:51:31.152Z,10.50
2023-03-16T21:54:34.019Z,10.50
2023-03-16T21:57:36.829Z,10.50
2023-03-16T22:00:39.957Z,10.50
2023-03-16T22:03:50.833Z,10.30
2023-03-16T22:06:55.362Z,10.20
2023-03-16T22:09:58.270Z,10.20
2023-03-16T22:13:02.183Z,10.10
2023-03-16T22:16:14.542Z,10.10
2023-03-16T22:19:18.114Z,10.20
2023-03-16T22:22:22.554Z,10.10
2023-03-16T22:25:26.574Z,10.00
2023-03-16T22:28:29.954Z,10.00
2023-03-16T22:31:35.651Z,10.00
2023-03-16T22:34:43.712Z,9.90
2023-03-16T22:37:48.280Z,9.90
2023-03-16T22:40:52.252Z,9.80
2023-03-16T22:43:55.256Z,9.70
2023-03-16T22:46:58.084Z,9.60
2023-03-16T22:50:01.286Z,9.60
2023-03-16T22:53:08.140Z,9.60
2023-03-16T22:56:11.204Z,9.50
2023-03-16T22:59:16.906Z,9.60
2023-03-16T23:02:25.206Z,9.50
2023-03-16T23:05:30.292Z,9.40
2023-03-16T23:08:34.730Z,9.40
2023-03-16T23:11:39.712Z,9.30
2023-03-16T23:14:43.302Z,9.30
2023-03-16T23:17:46.335Z,9.20
2023-03-16T23:20:50.170Z,9.10
2023-03-16T23:24:03.473Z,9.10
2023-03-16T23:27:15.541Z,9.00
2023-03-16T23:30:22.548Z,9.00
2023-03-16T23:33:25.496Z,9.00
2023-03-16T23:36:28.433Z,8.90
2023-03-16T23:39:32.611Z,8.90
2023-03-16T23:42:35.685Z,8.80
2023-03-16T23:45:41.748Z,8.80
2023-03-16T23:48:46.292Z,8.70
2023-03-16T23:51:49.416Z,8.70
2023-03-16T23:54:53.596Z,8.70
2023-03-16T23:57:56.494Z,8.60
